KEBG

South Texas International at Edinburg Airport

Edinburg, Texas, USA
METAR KEBG 232215Z AUTO 16016G22KT 10SM CLR 31/17 A2994 RMK AO2 T03080168
Observed Flight Rules
Feb-23 @ 22:15 UTC (23 minutes ago) Visual Flight Rules
Wind Visibility Clouds
160° at 16 knots
 Gusting to 22 knots
10 miles
  • Clear skies
Temperatures Readings
Current 31°C / 88°F
Dewpoint 17°C / 63°F
Humidity 43%
Altimeter 29.94" Hg
Pressure 1014 hPa
Elevation 24
METAR KEBG 232215Z AUTO 16016G22KT 10SM CLR 31/17 A2994 RMK AO2 T03080168
Observed Flight Rules
Feb-23 @ 22:15 UTC
(23 minutes ago)
VFR
Wind Visibility
160° at 16 knots
 Gusting to 22 knots
10 miles
Clouds
  • Clear skies
Temperature Dewpoint
31°C / 88°F 17°C / 63°F
Humidity Altimeter Pressure
43% 29.94" Hg 1014 hPa